sensor_id;sensor_type;location;lat;lon;timestamp;temperature;humidity
22456;DHT22;11395;53.204;6.502;2023-04-25T00:01:21;22.60;58.50
22456;DHT22;11395;53.204;6.502;2023-04-25T00:03:48;22.60;58.40
22456;DHT22;11395;53.204;6.502;2023-04-25T00:06:14;22.60;58.40
22456;DHT22;11395;53.204;6.502;2023-04-25T00:08:40;22.60;58.40
22456;DHT22;11395;53.204;6.502;2023-04-25T00:11:07;22.60;58.60
22456;DHT22;11395;53.204;6.502;2023-04-25T00:13:33;22.50;58.50
22456;DHT22;11395;53.204;6.502;2023-04-25T00:15:59;22.50;58.40
22456;DHT22;11395;53.204;6.502;2023-04-25T00:18:26;22.50;58.30
22456;DHT22;11395;53.204;6.502;2023-04-25T00:20:55;22.50;58.20
22456;DHT22;11395;53.204;6.502;2023-04-25T00:23:21;22.60;58.20
22456;DHT22;11395;53.204;6.502;2023-04-25T00:25:49;22.50;58.20
22456;DHT22;11395;53.204;6.502;2023-04-25T00:28:15;22.50;58.10
22456;DHT22;11395;53.204;6.502;2023-04-25T00:30:43;22.50;58.10
22456;DHT22;11395;53.204;6.502;2023-04-25T00:33:09;22.50;58.20
22456;DHT22;11395;53.204;6.502;2023-04-25T00:35:36;22.40;58.20
22456;DHT22;11395;53.204;6.502;2023-04-25T00:38:02;22.40;58.20
22456;DHT22;11395;53.204;6.502;2023-04-25T00:40:29;22.40;58.30
22456;DHT22;11395;53.204;6.502;2023-04-25T00:42:55;22.30;58.40
22456;DHT22;11395;53.204;6.502;2023-04-25T00:45:21;22.30;58.50
22456;DHT22;11395;53.204;6.502;2023-04-25T00:47:53;22.30;58.50
22456;DHT22;11395;53.204;6.502;2023-04-25T00:50:20;22.20;58.50
22456;DHT22;11395;53.204;6.502;2023-04-25T00:52:46;22.20;58.50
22456;DHT22;11395;53.204;6.502;2023-04-25T00:55:12;22.20;58.40
22456;DHT22;11395;53.204;6.502;2023-04-25T00:57:39;22.20;58.50
22456;DHT22;11395;53.204;6.502;2023-04-25T01:00:07;22.20;58.30
22456;DHT22;11395;53.204;6.502;2023-04-25T01:02:36;22.10;58.40
22456;DHT22;11395;53.204;6.502;2023-04-25T01:05:03;22.10;58.30
22456;DHT22;11395;53.204;6.502;2023-04-25T01:07:29;22.10;58.30
22456;DHT22;11395;53.204;6.502;2023-04-25T01:09:56;22.10;58.40
22456;DHT22;11395;53.204;6.502;2023-04-25T01:12:23;22.10;58.30
22456;DHT22;11395;53.204;6.502;2023-04-25T01:14:49;22.10;58.30
22456;DHT22;11395;53.204;6.502;2023-04-25T01:17:16;22.10;58.30
22456;DHT22;11395;53.204;6.502;2023-04-25T01:19:43;22.00;58.30
22456;DHT22;11395;53.204;6.502;2023-04-25T01:22:11;22.00;58.30
22456;DHT22;11395;53.204;6.502;2023-04-25T01:24:38;22.00;58.30
22456;DHT22;11395;53.204;6.502;2023-04-25T01:27:04;22.00;58.40
22456;DHT22;11395;53.204;6.502;2023-04-25T01:29:32;22.00;58.40
22456;DHT22;11395;53.204;6.502;2023-04-25T01:31:59;22.00;58.40
22456;DHT22;11395;53.204;6.502;2023-04-25T01:34:25;21.90;58.30
22456;DHT22;11395;53.204;6.502;2023-04-25T01:36:52;21.90;58.30
22456;DHT22;11395;53.204;6.502;2023-04-25T01:39:19;21.90;58.30
22456;DHT22;11395;53.204;6.502;2023-04-25T01:41:46;21.90;58.30
22456;DHT22;11395;53.204;6.502;2023-04-25T01:44:13;21.90;58.30
22456;DHT22;11395;53.204;6.502;2023-04-25T01:46:40;21.90;58.40
22456;DHT22;11395;53.204;6.502;2023-04-25T01:49:06;21.80;58.40
22456;DHT22;11395;53.204;6.502;2023-04-25T01:51:33;21.80;58.40
22456;DHT22;11395;53.204;6.502;2023-04-25T01:53:59;21.70;58.40
22456;DHT22;11395;53.204;6.502;2023-04-25T01:56:30;21.70;58.60
22456;DHT22;11395;53.204;6.502;2023-04-25T01:58:57;21.70;58.50
22456;DHT22;11395;53.204;6.502;2023-04-25T02:01:49;21.70;58.70
22456;DHT22;11395;53.204;6.502;2023-04-25T02:04:22;21.60;58.70
22456;DHT22;11395;53.204;6.502;2023-04-25T02:06:48;21.60;58.70
22456;DHT22;11395;53.204;6.502;2023-04-25T02:09:15;21.60;58.70
22456;DHT22;11395;53.204;6.502;2023-04-25T02:11:46;21.60;58.80
22456;DHT22;11395;53.204;6.502;2023-04-25T02:14:47;21.60;58.80
22456;DHT22;11395;53.204;6.502;2023-04-25T02:17:25;21.50;58.80
22456;DHT22;11395;53.204;6.502;2023-04-25T02:19:52;21.50;58.80
22456;DHT22;11395;53.204;6.502;2023-04-25T02:22:18;21.50;58.80
22456;DHT22;11395;53.204;6.502;2023-04-25T02:24:46;21.50;58.80
22456;DHT22;11395;53.204;6.502;2023-04-25T02:27:12;21.40;58.70
22456;DHT22;11395;53.204;6.502;2023-04-25T02:29:38;21.40;58.70
22456;DHT22;11395;53.204;6.502;2023-04-25T02:32:04;21.40;58.80
22456;DHT22;11395;53.204;6.502;2023-04-25T02:34:31;21.40;58.80
22456;DHT22;11395;53.204;6.502;2023-04-25T02:37:00;21.40;58.80
22456;DHT22;11395;53.204;6.502;2023-04-25T02:39:26;21.30;58.80
22456;DHT22;11395;53.204;6.502;2023-04-25T02:41:53;21.30;58.80
22456;DHT22;11395;53.204;6.502;2023-04-25T02:44:21;21.30;58.90
22456;DHT22;11395;53.204;6.502;2023-04-25T02:46:47;21.30;59.00
22456;DHT22;11395;53.204;6.502;2023-04-25T02:49:13;21.20;58.90
22456;DHT22;11395;53.204;6.502;2023-04-25T02:51:40;21.20;58.90
22456;DHT22;11395;53.204;6.502;2023-04-25T02:54:06;21.20;58.90
22456;DHT22;11395;53.204;6.502;2023-04-25T02:56:36;21.20;58.90
22456;DHT22;11395;53.204;6.502;2023-04-25T02:59:04;21.10;59.00
22456;DHT22;11395;53.204;6.502;2023-04-25T03:01:32;21.10;59.00
22456;DHT22;11395;53.204;6.502;2023-04-25T03:03:58;21.10;59.00
22456;DHT22;11395;53.204;6.502;2023-04-25T03:06:24;21.10;59.10
22456;DHT22;11395;53.204;6.502;2023-04-25T03:08:52;21.10;59.10
22456;DHT22;11395;53.204;6.502;2023-04-25T03:11:18;21.10;59.10
22456;DHT22;11395;53.204;6.502;2023-04-25T03:13:46;21.10;59.10
22456;DHT22;11395;53.204;6.502;2023-04-25T03:18:55;21.00;59.00
22456;DHT22;11395;53.204;6.502;2023-04-25T03:21:21;21.00;59.00
22456;DHT22;11395;53.204;6.502;2023-04-25T03:23:47;21.10;58.80
22456;DHT22;11395;53.204;6.502;2023-04-25T03:26:13;21.10;58.80
22456;DHT22;11395;53.204;6.502;2023-04-25T03:28:40;21.10;59.40
22456;DHT22;11395;53.204;6.502;2023-04-25T03:31:06;21.20;58.70
22456;DHT22;11395;53.204;6.502;2023-04-25T03:33:33;21.30;58.60
22456;DHT22;11395;53.204;6.502;2023-04-25T03:35:59;21.40;58.60
22456;DHT22;11395;53.204;6.502;2023-04-25T03:38:27;21.50;58.50
22456;DHT22;11395;53.204;6.502;2023-04-25T03:40:54;21.60;58.60
22456;DHT22;11395;53.204;6.502;2023-04-25T03:43:25;21.70;58.50
22456;DHT22;11395;53.204;6.502;2023-04-25T03:45:57;21.70;58.40
22456;DHT22;11395;53.204;6.502;2023-04-25T03:48:25;21.80;58.30
22456;DHT22;11395;53.204;6.502;2023-04-25T03:50:53;21.90;58.10
22456;DHT22;11395;53.204;6.502;2023-04-25T03:53:20;22.00;58.00
22456;DHT22;11395;53.204;6.502;2023-04-25T03:56:06;22.10;57.90
22456;DHT22;11395;53.204;6.502;2023-04-25T03:58:35;22.20;57.80
22456;DHT22;11395;53.204;6.502;2023-04-25T04:01:01;22.20;57.80
22456;DHT22;11395;53.204;6.502;2023-04-25T04:03:34;22.30;58.00
22456;DHT22;11395;53.204;6.502;2023-04-25T04:06:03;22.30;57.60
22456;DHT22;11395;53.204;6.502;2023-04-25T04:08:31;22.30;57.50
22456;DHT22;11395;53.204;6.502;2023-04-25T04:10:58;22.40;57.50
22456;DHT22;11395;53.204;6.502;2023-04-25T04:13:29;22.40;57.40
22456;DHT22;11395;53.204;6.502;2023-04-25T04:15:56;22.40;57.20
22456;DHT22;11395;53.204;6.502;2023-04-25T04:18:23;22.50;57.30
22456;DHT22;11395;53.204;6.502;2023-04-25T04:20:49;22.50;57.10
22456;DHT22;11395;53.204;6.502;2023-04-25T04:23:16;22.60;57.00
22456;DHT22;11395;53.204;6.502;2023-04-25T04:25:43;22.70;56.90
22456;DHT22;11395;53.204;6.502;2023-04-25T04:28:28;22.70;56.90
22456;DHT22;11395;53.204;6.502;2023-04-25T04:30:58;22.90;56.80
22456;DHT22;11395;53.204;6.502;2023-04-25T04:33:26;23.00;56.80
22456;DHT22;11395;53.204;6.502;2023-04-25T04:35:59;23.10;56.70
22456;DHT22;11395;53.204;6.502;2023-04-25T04:38:25;23.20;56.60
22456;DHT22;11395;53.204;6.502;2023-04-25T04:40:55;23.30;56.40
22456;DHT22;11395;53.204;6.502;2023-04-25T04:43:45;23.40;56.30
22456;DHT22;11395;53.204;6.502;2023-04-25T04:46:23;23.60;56.20
22456;DHT22;11395;53.204;6.502;2023-04-25T04:49:13;23.70;56.00
22456;DHT22;11395;53.204;6.502;2023-04-25T04:51:47;23.90;55.90
22456;DHT22;11395;53.204;6.502;2023-04-25T04:54:50;24.10;55.80
22456;DHT22;11395;53.204;6.502;2023-04-25T04:57:34;24.20;55.60
22456;DHT22;11395;53.204;6.502;2023-04-25T05:00:30;24.30;55.40
22456;DHT22;11395;53.204;6.502;2023-04-25T05:03:28;24.40;55.60
22456;DHT22;11395;53.204;6.502;2023-04-25T05:06:06;24.50;55.50
22456;DHT22;11395;53.204;6.502;2023-04-25T05:08:43;24.50;55.40
22456;DHT22;11395;53.204;6.502;2023-04-25T05:11:12;24.60;55.00
22456;DHT22;11395;53.204;6.502;2023-04-25T05:14:01;24.60;54.90
22456;DHT22;11395;53.204;6.502;2023-04-25T05:16:45;24.60;54.90
22456;DHT22;11395;53.204;6.502;2023-04-25T05:19:41;24.70;55.60
22456;DHT22;11395;53.204;6.502;2023-04-25T05:22:24;24.70;54.80
22456;DHT22;11395;53.204;6.502;2023-04-25T05:24:59;24.70;54.60
22456;DHT22;11395;53.204;6.502;2023-04-25T05:27:47;24.80;55.00
22456;DHT22;11395;53.204;6.502;2023-04-25T05:30:27;24.80;55.50
22456;DHT22;11395;53.204;6.502;2023-04-25T05:33:10;24.80;54.90
22456;DHT22;11395;53.204;6.502;2023-04-25T05:35:36;24.90;54.80
22456;DHT22;11395;53.204;6.502;2023-04-25T05:38:02;24.90;54.50
22456;DHT22;11395;53.204;6.502;2023-04-25T05:40:54;24.90;54.20
22456;DHT22;11395;53.204;6.502;2023-04-25T05:43:39;24.90;53.50
22456;DHT22;11395;53.204;6.502;2023-04-25T05:46:26;24.90;54.00
22456;DHT22;11395;53.204;6.502;2023-04-25T05:49:22;24.90;53.70
22456;DHT22;11395;53.204;6.502;2023-04-25T05:52:13;24.90;54.00
22456;DHT22;11395;53.204;6.502;2023-04-25T05:54:50;24.80;53.80
22456;DHT22;11395;53.204;6.502;2023-04-25T05:57:25;24.70;54.00
22456;DHT22;11395;53.204;6.502;2023-04-25T05:59:53;24.60;53.90
22456;DHT22;11395;53.204;6.502;2023-04-25T06:02:20;24.60;54.20
22456;DHT22;11395;53.204;6.502;2023-04-25T06:04:51;24.50;54.40
22456;DHT22;11395;53.204;6.502;2023-04-25T06:07:18;24.50;54.40
22456;DHT22;11395;53.204;6.502;2023-04-25T06:09:45;24.60;54.50
22456;DHT22;11395;53.204;6.502;2023-04-25T06:12:11;24.60;54.60
22456;DHT22;11395;53.204;6.502;2023-04-25T06:14:38;24.60;54.40
22456;DHT22;11395;53.204;6.502;2023-04-25T06:17:04;24.70;54.50
22456;DHT22;11395;53.204;6.502;2023-04-25T06:19:35;24.70;54.40
22456;DHT22;11395;53.204;6.502;2023-04-25T06:22:02;24.90;54.50
22456;DHT22;11395;53.204;6.502;2023-04-25T06:24:30;25.00;54.50
22456;DHT22;11395;53.204;6.502;2023-04-25T06:26:56;25.10;54.30
22456;DHT22;11395;53.204;6.502;2023-04-25T06:29:22;25.30;54.20
22456;DHT22;11395;53.204;6.502;2023-04-25T06:31:48;25.50;54.10
22456;DHT22;11395;53.204;6.502;2023-04-25T06:34:15;25.50;53.40
22456;DHT22;11395;53.204;6.502;2023-04-25T06:36:41;25.70;53.60
22456;DHT22;11395;53.204;6.502;2023-04-25T06:39:11;25.80;53.30
22456;DHT22;11395;53.204;6.502;2023-04-25T06:41:37;25.90;53.40
22456;DHT22;11395;53.204;6.502;2023-04-25T06:44:06;25.90;53.20
22456;DHT22;11395;53.204;6.502;2023-04-25T06:46:38;26.00;53.10
22456;DHT22;11395;53.204;6.502;2023-04-25T06:49:05;25.90;52.80
22456;DHT22;11395;53.204;6.502;2023-04-25T06:51:31;25.90;52.40
22456;DHT22;11395;53.204;6.502;2023-04-25T06:53:58;25.80;53.00
22456;DHT22;11395;53.204;6.502;2023-04-25T06:56:33;25.70;52.90
22456;DHT22;11395;53.204;6.502;2023-04-25T06:59:08;25.70;53.00
22456;DHT22;11395;53.204;6.502;2023-04-25T07:01:39;25.60;52.50
22456;DHT22;11395;53.204;6.502;2023-04-25T07:04:11;25.60;52.70
22456;DHT22;11395;53.204;6.502;2023-04-25T07:06:43;25.60;52.80
22456;DHT22;11395;53.204;6.502;2023-04-25T07:09:10;25.60;52.60
22456;DHT22;11395;53.204;6.502;2023-04-25T07:11:36;25.50;52.50
22456;DHT22;11395;53.204;6.502;2023-04-25T07:14:03;25.50;52.50
22456;DHT22;11395;53.204;6.502;2023-04-25T07:16:29;25.50;52.40
22456;DHT22;11395;53.204;6.502;2023-04-25T07:18:56;25.40;52.50
22456;DHT22;11395;53.204;6.502;2023-04-25T07:21:22;25.40;52.50
22456;DHT22;11395;53.204;6.502;2023-04-25T07:23:51;25.40;52.40
22456;DHT22;11395;53.204;6.502;2023-04-25T07:26:22;25.30;52.50
22456;DHT22;11395;53.204;6.502;2023-04-25T07:29:06;25.30;52.50
22456;DHT22;11395;53.204;6.502;2023-04-25T07:31:33;25.30;52.80
22456;DHT22;11395;53.204;6.502;2023-04-25T07:33:59;25.30;52.40
22456;DHT22;11395;53.204;6.502;2023-04-25T07:36:25;25.30;52.30
22456;DHT22;11395;53.204;6.502;2023-04-25T07:38:53;25.40;52.40
22456;DHT22;11395;53.204;6.502;2023-04-25T07:41:19;25.40;52.40
22456;DHT22;11395;53.204;6.502;2023-04-25T07:43:46;25.30;52.50
22456;DHT22;11395;53.204;6.502;2023-04-25T07:46:12;25.30;52.80
22456;DHT22;11395;53.204;6.502;2023-04-25T07:48:38;25.30;52.30
22456;DHT22;11395;53.204;6.502;2023-04-25T07:51:05;25.20;52.20
22456;DHT22;11395;53.204;6.502;2023-04-25T07:53:32;25.20;52.40
22456;DHT22;11395;53.204;6.502;2023-04-25T07:56:07;25.20;52.50
22456;DHT22;11395;53.204;6.502;2023-04-25T07:58:37;25.10;52.90
22456;DHT22;11395;53.204;6.502;2023-04-25T08:01:05;25.10;52.90
22456;DHT22;11395;53.204;6.502;2023-04-25T08:03:34;25.10;53.00
22456;DHT22;11395;53.204;6.502;2023-04-25T08:06:10;25.10;53.10
22456;DHT22;11395;53.204;6.502;2023-04-25T08:08:52;25.10;53.00
22456;DHT22;11395;53.204;6.502;2023-04-25T08:11:21;25.00;52.60
22456;DHT22;11395;53.204;6.502;2023-04-25T08:13:47;24.90;52.70
22456;DHT22;11395;53.204;6.502;2023-04-25T08:16:14;24.80;52.50
22456;DHT22;11395;53.204;6.502;2023-04-25T08:18:43;24.70;52.80
22456;DHT22;11395;53.204;6.502;2023-04-25T08:21:15;24.60;52.70
22456;DHT22;11395;53.204;6.502;2023-04-25T08:23:41;24.70;53.20
22456;DHT22;11395;53.204;6.502;2023-04-25T08:26:33;24.90;52.90
22456;DHT22;11395;53.204;6.502;2023-04-25T08:29:15;25.10;52.70
22456;DHT22;11395;53.204;6.502;2023-04-25T08:31:44;25.10;52.40
22456;DHT22;11395;53.204;6.502;2023-04-25T08:34:12;25.20;52.40
22456;DHT22;11395;53.204;6.502;2023-04-25T08:36:50;25.20;52.40
22456;DHT22;11395;53.204;6.502;2023-04-25T08:39:24;25.30;52.40
22456;DHT22;11395;53.204;6.502;2023-04-25T08:42:12;25.30;52.20
22456;DHT22;11395;53.204;6.502;2023-04-25T08:44:39;25.40;52.20
22456;DHT22;11395;53.204;6.502;2023-04-25T08:47:06;25.50;52.20
22456;DHT22;11395;53.204;6.502;2023-04-25T08:49:38;25.60;52.30
22456;DHT22;11395;53.204;6.502;2023-04-25T08:52:14;25.70;52.30
22456;DHT22;11395;53.204;6.502;2023-04-25T08:54:51;25.70;52.10
22456;DHT22;11395;53.204;6.502;2023-04-25T08:57:23;25.70;52.20
22456;DHT22;11395;53.204;6.502;2023-04-25T08:59:54;25.80;52.70
22456;DHT22;11395;53.204;6.502;2023-04-25T09:02:24;25.80;51.90
22456;DHT22;11395;53.204;6.502;2023-04-25T09:04:55;25.90;51.90
22456;DHT22;11395;53.204;6.502;2023-04-25T09:07:22;25.90;51.60
22456;DHT22;11395;53.204;6.502;2023-04-25T09:09:54;26.00;51.70
22456;DHT22;11395;53.204;6.502;2023-04-25T09:12:22;26.00;51.70
22456;DHT22;11395;53.204;6.502;2023-04-25T09:15:10;26.10;51.70
22456;DHT22;11395;53.204;6.502;2023-04-25T09:18:02;26.10;51.50
22456;DHT22;11395;53.204;6.502;2023-04-25T09:20:41;26.10;51.50
22456;DHT22;11395;53.204;6.502;2023-04-25T09:23:08;26.20;51.40
22456;DHT22;11395;53.204;6.502;2023-04-25T09:25:37;26.10;51.50
22456;DHT22;11395;53.204;6.502;2023-04-25T09:28:07;26.10;51.50
22456;DHT22;11395;53.204;6.502;2023-04-25T09:30:34;26.00;51.50
22456;DHT22;11395;53.204;6.502;2023-04-25T09:33:14;25.90;51.50
22456;DHT22;11395;53.204;6.502;2023-04-25T09:35:46;25.90;51.80
22456;DHT22;11395;53.204;6.502;2023-04-25T09:38:20;25.80;51.80
22456;DHT22;11395;53.204;6.502;2023-04-25T09:41:10;25.70;52.50
22456;DHT22;11395;53.204;6.502;2023-04-25T09:43:45;25.70;51.80
22456;DHT22;11395;53.204;6.502;2023-04-25T09:46:12;25.70;52.00
22456;DHT22;11395;53.204;6.502;2023-04-25T09:48:50;25.70;51.80
22456;DHT22;11395;53.204;6.502;2023-04-25T09:51:25;25.70;51.70
22456;DHT22;11395;53.204;6.502;2023-04-25T09:53:52;25.80;51.70
22456;DHT22;11395;53.204;6.502;2023-04-25T09:56:36;25.70;51.70
22456;DHT22;11395;53.204;6.502;2023-04-25T09:59:06;25.70;51.60
22456;DHT22;11395;53.204;6.502;2023-04-25T10:01:35;25.70;51.80
22456;DHT22;11395;53.204;6.502;2023-04-25T10:04:24;25.60;51.80
22456;DHT22;11395;53.204;6.502;2023-04-25T10:06:59;25.60;51.90
22456;DHT22;11395;53.204;6.502;2023-04-25T10:09:26;25.50;51.90
22456;DHT22;11395;53.204;6.502;2023-04-25T10:11:56;25.60;52.10
22456;DHT22;11395;53.204;6.502;2023-04-25T10:14:23;25.60;52.00
22456;DHT22;11395;53.204;6.502;2023-04-25T10:16:50;25.70;51.80
22456;DHT22;11395;53.204;6.502;2023-04-25T10:19:20;25.70;51.90
22456;DHT22;11395;53.204;6.502;2023-04-25T10:21:51;25.70;51.80
22456;DHT22;11395;53.204;6.502;2023-04-25T10:24:19;25.60;51.80
22456;DHT22;11395;53.204;6.502;2023-04-25T10:26:47;25.60;52.20
22456;DHT22;11395;53.204;6.502;2023-04-25T10:29:22;25.50;51.70
22456;DHT22;11395;53.204;6.502;2023-04-25T10:31:49;25.50;51.90
22456;DHT22;11395;53.204;6.502;2023-04-25T10:34:16;25.50;52.00
22456;DHT22;11395;53.204;6.502;2023-04-25T10:36:49;25.40;52.10
22456;DHT22;11395;53.204;6.502;2023-04-25T10:39:22;25.30;52.00
22456;DHT22;11395;53.204;6.502;2023-04-25T10:41:56;25.30;52.20
22456;DHT22;11395;53.204;6.502;2023-04-25T10:44:26;25.30;52.40
22456;DHT22;11395;53.204;6.502;2023-04-25T10:46:58;25.30;52.10
22456;DHT22;11395;53.204;6.502;2023-04-25T10:49:34;25.20;51.80
22456;DHT22;11395;53.204;6.502;2023-04-25T10:52:26;25.10;51.80
22456;DHT22;11395;53.204;6.502;2023-04-25T10:54:56;25.10;51.80
22456;DHT22;11395;53.204;6.502;2023-04-25T10:57:46;25.10;51.90
22456;DHT22;11395;53.204;6.502;2023-04-25T11:00:16;25.00;52.10
22456;DHT22;11395;53.204;6.502;2023-04-25T11:02:53;25.00;52.20
22456;DHT22;11395;53.204;6.502;2023-04-25T11:05:27;25.00;52.30
22456;DHT22;11395;53.204;6.502;2023-04-25T11:07:56;25.00;52.40
22456;DHT22;11395;53.204;6.502;2023-04-25T11:10:32;25.00;52.40
22456;DHT22;11395;53.204;6.502;2023-04-25T11:12:58;25.00;52.40
22456;DHT22;11395;53.204;6.502;2023-04-25T11:15:26;25.00;53.00
22456;DHT22;11395;53.204;6.502;2023-04-25T11:17:53;25.00;52.70
22456;DHT22;11395;53.204;6.502;2023-04-25T11:20:20;25.00;52.80
22456;DHT22;11395;53.204;6.502;2023-04-25T11:22:47;24.90;52.90
22456;DHT22;11395;53.204;6.502;2023-04-25T11:25:15;24.90;52.90
22456;DHT22;11395;53.204;6.502;2023-04-25T11:27:58;24.90;52.90
22456;DHT22;11395;53.204;6.502;2023-04-25T11:30:25;24.90;52.90
22456;DHT22;11395;53.204;6.502;2023-04-25T11:32:52;24.90;53.60
22456;DHT22;11395;53.204;6.502;2023-04-25T11:35:19;24.90;52.90
22456;DHT22;11395;53.204;6.502;2023-04-25T11:37:46;24.90;53.60
22456;DHT22;11395;53.204;6.502;2023-04-25T11:40:13;24.90;53.00
22456;DHT22;11395;53.204;6.502;2023-04-25T11:42:43;24.90;53.00
22456;DHT22;11395;53.204;6.502;2023-04-25T11:45:09;24.90;52.90
22456;DHT22;11395;53.204;6.502;2023-04-25T11:47:37;24.90;52.90
22456;DHT22;11395;53.204;6.502;2023-04-25T11:50:05;24.90;52.90
22456;DHT22;11395;53.204;6.502;2023-04-25T11:52:43;24.90;52.80
22456;DHT22;11395;53.204;6.502;2023-04-25T11:55:14;24.90;52.90
22456;DHT22;11395;53.204;6.502;2023-04-25T11:57:42;24.90;52.90
22456;DHT22;11395;53.204;6.502;2023-04-25T12:00:17;24.90;53.00
22456;DHT22;11395;53.204;6.502;2023-04-25T12:02:55;24.80;53.00
22456;DHT22;11395;53.204;6.502;2023-04-25T12:05:28;24.80;53.00
22456;DHT22;11395;53.204;6.502;2023-04-25T12:07:55;24.80;53.00
22456;DHT22;11395;53.204;6.502;2023-04-25T12:10:21;24.70;52.90
22456;DHT22;11395;53.204;6.502;2023-04-25T12:12:48;24.70;52.90
22456;DHT22;11395;53.204;6.502;2023-04-25T12:15:23;24.70;52.80
22456;DHT22;11395;53.204;6.502;2023-04-25T12:17:51;24.70;52.80
22456;DHT22;11395;53.204;6.502;2023-04-25T12:20:20;24.60;52.70
22456;DHT22;11395;53.204;6.502;2023-04-25T12:22:47;24.60;52.80
22456;DHT22;11395;53.204;6.502;2023-04-25T12:25:38;24.60;53.00
22456;DHT22;11395;53.204;6.502;2023-04-25T12:28:22;24.60;53.00
22456;DHT22;11395;53.204;6.502;2023-04-25T12:31:03;24.60;53.00
22456;DHT22;11395;53.204;6.502;2023-04-25T12:33:37;24.70;53.00
22456;DHT22;11395;53.204;6.502;2023-04-25T12:36:04;24.60;52.90
22456;DHT22;11395;53.204;6.502;2023-04-25T12:38:42;24.70;52.80
22456;DHT22;11395;53.204;6.502;2023-04-25T12:41:08;24.60;52.80
22456;DHT22;11395;53.204;6.502;2023-04-25T12:43:34;24.60;52.80
22456;DHT22;11395;53.204;6.502;2023-04-25T12:46:01;24.60;52.90
22456;DHT22;11395;53.204;6.502;2023-04-25T12:48:27;24.60;53.50
22456;DHT22;11395;53.204;6.502;2023-04-25T12:50:54;24.60;52.80
22456;DHT22;11395;53.204;6.502;2023-04-25T12:53:21;24.70;52.80
22456;DHT22;11395;53.204;6.502;2023-04-25T12:55:48;24.70;52.80
22456;DHT22;11395;53.204;6.502;2023-04-25T12:58:15;24.70;52.70
22456;DHT22;11395;53.204;6.502;2023-04-25T13:00:43;24.70;52.80
22456;DHT22;11395;53.204;6.502;2023-04-25T13:03:10;24.70;52.60
22456;DHT22;11395;53.204;6.502;2023-04-25T13:05:37;24.80;52.50
22456;DHT22;11395;53.204;6.502;2023-04-25T13:08:04;24.70;52.40
22456;DHT22;11395;53.204;6.502;2023-04-25T13:10:31;24.70;52.40
22456;DHT22;11395;53.204;6.502;2023-04-25T13:12:57;24.70;52.30
22456;DHT22;11395;53.204;6.502;2023-04-25T13:15:23;24.60;52.20
22456;DHT22;11395;53.204;6.502;2023-04-25T13:17:49;24.60;52.30
22456;DHT22;11395;53.204;6.502;2023-04-25T13:20:15;24.60;52.30
22456;DHT22;11395;53.204;6.502;2023-04-25T13:22:42;24.50;52.40
22456;DHT22;11395;53.204;6.502;2023-04-25T13:25:11;24.50;52.40
22456;DHT22;11395;53.204;6.502;2023-04-25T13:27:37;24.50;52.20
22456;DHT22;11395;53.204;6.502;2023-04-25T13:30:05;24.60;52.50
22456;DHT22;11395;53.204;6.502;2023-04-25T13:32:35;24.60;52.60
22456;DHT22;11395;53.204;6.502;2023-04-25T13:35:08;24.60;52.70
22456;DHT22;11395;53.204;6.502;2023-04-25T13:37:35;24.70;52.50
22456;DHT22;11395;53.204;6.502;2023-04-25T13:40:03;24.60;52.50
22456;DHT22;11395;53.204;6.502;2023-04-25T13:42:31;24.90;53.10
22456;DHT22;11395;53.204;6.502;2023-04-25T13:44:57;25.00;52.30
22456;DHT22;11395;53.204;6.502;2023-04-25T13:47:25;25.10;52.30
22456;DHT22;11395;53.204;6.502;2023-04-25T13:49:51;25.20;52.30
22456;DHT22;11395;53.204;6.502;2023-04-25T13:52:17;25.20;52.30
22456;DHT22;11395;53.204;6.502;2023-04-25T13:54:44;25.30;52.40
22456;DHT22;11395;53.204;6.502;2023-04-25T13:57:10;25.30;52.30
22456;DHT22;11395;53.204;6.502;2023-04-25T13:59:38;25.20;52.30
22456;DHT22;11395;53.204;6.502;2023-04-25T14:02:04;25.20;52.20
22456;DHT22;11395;53.204;6.502;2023-04-25T14:04:30;25.20;52.30
22456;DHT22;11395;53.204;6.502;2023-04-25T14:06:56;25.20;52.20
22456;DHT22;11395;53.204;6.502;2023-04-25T14:09:23;25.20;52.20
22456;DHT22;11395;53.204;6.502;2023-04-25T14:11:51;25.20;52.10
22456;DHT22;11395;53.204;6.502;2023-04-25T14:14:22;25.20;52.00
22456;DHT22;11395;53.204;6.502;2023-04-25T14:16:49;25.30;51.80
22456;DHT22;11395;53.204;6.502;2023-04-25T14:19:20;25.30;51.70
22456;DHT22;11395;53.204;6.502;2023-04-25T14:21:46;25.20;52.40
22456;DHT22;11395;53.204;6.502;2023-04-25T14:24:13;25.30;51.80
22456;DHT22;11395;53.204;6.502;2023-04-25T14:26:39;25.30;51.80
22456;DHT22;11395;53.204;6.502;2023-04-25T14:29:06;25.30;51.90
22456;DHT22;11395;53.204;6.502;2023-04-25T14:31:35;25.30;51.90
22456;DHT22;11395;53.204;6.502;2023-04-25T14:34:02;25.30;51.90
22456;DHT22;11395;53.204;6.502;2023-04-25T14:36:28;25.30;51.90
22456;DHT22;11395;53.204;6.502;2023-04-25T14:38:55;25.30;51.90
22456;DHT22;11395;53.204;6.502;2023-04-25T14:41:21;25.30;51.80
22456;DHT22;11395;53.204;6.502;2023-04-25T14:43:47;25.30;51.60
22456;DHT22;11395;53.204;6.502;2023-04-25T14:46:13;25.30;51.50
22456;DHT22;11395;53.204;6.502;2023-04-25T14:48:40;25.30;51.30
22456;DHT22;11395;53.204;6.502;2023-04-25T14:51:06;25.30;51.20
22456;DHT22;11395;53.204;6.502;2023-04-25T14:53:32;25.30;51.20
22456;DHT22;11395;53.204;6.502;2023-04-25T14:55:59;25.20;51.30
22456;DHT22;11395;53.204;6.502;2023-04-25T14:58:25;25.20;51.20
22456;DHT22;11395;53.204;6.502;2023-04-25T15:00:51;25.20;51.30
22456;DHT22;11395;53.204;6.502;2023-04-25T15:03:18;25.20;51.30
22456;DHT22;11395;53.204;6.502;2023-04-25T15:05:44;25.20;51.40
22456;DHT22;11395;53.204;6.502;2023-04-25T15:08:10;25.20;51.30
22456;DHT22;11395;53.204;6.502;2023-04-25T15:10:36;25.20;51.90
22456;DHT22;11395;53.204;6.502;2023-04-25T15:13:03;25.20;51.30
22456;DHT22;11395;53.204;6.502;2023-04-25T15:15:30;25.10;51.20
22456;DHT22;11395;53.204;6.502;2023-04-25T15:17:57;25.10;51.10
22456;DHT22;11395;53.204;6.502;2023-04-25T15:20:23;25.10;51.20
22456;DHT22;11395;53.204;6.502;2023-04-25T15:22:49;25.00;51.20
22456;DHT22;11395;53.204;6.502;2023-04-25T15:25:16;24.90;51.20
22456;DHT22;11395;53.204;6.502;2023-04-25T15:27:45;24.90;51.20
22456;DHT22;11395;53.204;6.502;2023-04-25T15:30:15;24.80;51.30
22456;DHT22;11395;53.204;6.502;2023-04-25T15:32:43;24.70;51.40
22456;DHT22;11395;53.204;6.502;2023-04-25T15:35:10;24.70;51.40
22456;DHT22;11395;53.204;6.502;2023-04-25T15:37:37;24.60;51.30
22456;DHT22;11395;53.204;6.502;2023-04-25T15:40:07;24.60;51.40
22456;DHT22;11395;53.204;6.502;2023-04-25T15:42:38;24.50;51.70
22456;DHT22;11395;53.204;6.502;2023-04-25T15:45:07;24.60;51.80
22456;DHT22;11395;53.204;6.502;2023-04-25T15:47:34;24.60;51.90
22456;DHT22;11395;53.204;6.502;2023-04-25T15:50:01;24.60;52.00
22456;DHT22;11395;53.204;6.502;2023-04-25T15:52:27;24.70;52.00